Time;durP1;ratioP1;P1;durP2;ratioP2;P2;SDS_P1;SDS_P2;PMS_P1;PMS_P2;Temp;Humidity;BMP_temperature;BMP_pressure;BME280_temperature;BME280_humidity;BME280_pressure;Samples;Min_cycle;Max_cycle;Signal;HPM_P1;HPM_P2
2022/10/16 00:01:38;;;;;;;26.60;6.28;;;12.90;99.90;;;;;;5045681;28;20049;-65
2022/10/16 00:04:04;;;;;;;14.98;3.40;;;12.90;99.90;;;;;;5045923;28;20051;-64
2022/10/16 00:06:31;;;;;;;25.02;3.38;;;12.90;99.90;;;;;;5047858;28;20052;-64
2022/10/16 00:08:58;;;;;;;17.85;2.92;;;12.90;99.90;;;;;;5047482;28;20059;-63
2022/10/16 00:11:36;;;;;;;14.65;2.35;;;12.90;99.90;;;;;;5047683;28;20041;-63
2022/10/16 00:14:05;;;;;;;22.45;3.85;;;12.90;99.90;;;;;;5047282;28;20049;-64
2022/10/16 00:16:31;;;;;;;16.77;3.38;;;12.90;99.90;;;;;;5046209;28;20045;-63
2022/10/16 00:18:58;;;;;;;24.00;5.43;;;12.80;99.90;;;;;;5050875;28;20055;-63
2022/10/16 00:21:27;;;;;;;14.85;3.47;;;12.90;99.90;;;;;;5051531;28;20052;-63
2022/10/16 00:24:01;;;;;;;27.83;4.82;;;12.90;99.90;;;;;;5051221;28;20045;-63
2022/10/16 00:26:29;;;;;;;24.95;3.42;;;12.80;99.90;;;;;;5051251;28;20051;-64
2022/10/16 00:28:56;;;;;;;26.67;4.82;;;12.90;99.90;;;;;;5050180;28;20060;-64
2022/10/16 00:31:23;;;;;;;26.40;4.75;;;12.90;99.90;;;;;;5051561;28;20049;-64
2022/10/16 00:33:49;;;;;;;18.33;3.17;;;12.90;99.90;;;;;;5050248;28;20061;-64
2022/10/16 00:36:18;;;;;;;23.90;3.67;;;12.90;99.90;;;;;;5050846;28;20415;-63
2022/10/16 00:38:45;;;;;;;16.58;2.80;;;12.90;99.90;;;;;;5051259;28;20059;-65
2022/10/16 00:41:14;;;;;;;27.88;3.83;;;12.80;99.90;;;;;;5050843;28;20053;-63
2022/10/16 00:43:43;;;;;;;16.48;2.78;;;12.80;99.90;;;;;;5051358;28;20060;-63
2022/10/16 00:46:24;;;;;;;20.27;3.45;;;12.80;99.90;;;;;;5050838;28;20072;-63
2022/10/16 00:49:12;;;;;;;17.38;3.15;;;12.80;99.90;;;;;;5031532;28;20064;-63
2022/10/16 00:51:47;;;;;;;21.67;3.20;;;12.70;99.90;;;;;;5048605;28;20049;-62
2022/10/16 00:54:22;;;;;;;17.60;3.22;;;12.70;99.90;;;;;;5050030;28;20056;-62
2022/10/16 00:56:48;;;;;;;18.40;3.45;;;12.70;99.90;;;;;;5033734;28;20045;-65
2022/10/16 00:59:18;;;;;;;20.70;2.90;;;12.70;99.90;;;;;;5051003;28;20048;-64
2022/10/16 01:01:44;;;;;;;11.55;2.35;;;12.80;99.90;;;;;;5049474;28;20051;-65
2022/10/16 01:04:11;;;;;;;18.95;2.83;;;12.80;99.90;;;;;;5049782;28;20045;-64
2022/10/16 01:06:58;;;;;;;19.48;2.92;;;12.80;99.90;;;;;;5050880;28;20495;-65
2022/10/16 01:09:33;;;;;;;16.30;3.35;;;12.80;99.90;;;;;;5030772;28;20059;-64
2022/10/16 01:12:06;;;;;;;19.25;2.90;;;12.80;99.90;;;;;;5017003;28;20049;-63
2022/10/16 01:15:18;;;;;;;24.55;4.00;;;12.80;99.90;;;;;;5029511;28;20148;-65
2022/10/16 01:17:55;;;;;;;23.73;2.72;;;12.80;99.90;;;;;;5043559;28;20276;-64
2022/10/16 01:20:45;;;;;;;15.43;2.97;;;12.80;99.90;;;;;;4711733;28;10000338;-63
2022/10/16 01:23:23;;;;;;;15.68;4.03;;;12.80;99.90;;;;;;5048584;28;20045;-64
2022/10/16 01:26:09;;;;;;;13.45;2.60;;;12.80;99.90;;;;;;5050204;28;20064;-64
2022/10/16 01:28:48;;;;;;;17.35;2.53;;;12.80;99.90;;;;;;5049839;28;20049;-64
2022/10/16 01:31:16;;;;;;;14.60;2.75;;;12.80;99.90;;;;;;5048892;28;20037;-65
2022/10/16 01:33:47;;;;;;;18.92;3.38;;;12.70;99.90;;;;;;5048872;28;20049;-64
2022/10/16 01:36:16;;;;;;;14.30;3.33;;;12.70;99.90;;;;;;5032981;28;20056;-64
2022/10/16 01:38:44;;;;;;;13.18;2.53;;;12.70;99.90;;;;;;5028965;28;20116;-64
2022/10/16 01:41:24;;;;;;;17.17;2.42;;;12.60;99.90;;;;;;5046516;28;20053;-64
2022/10/16 01:44:12;;;;;;;14.85;2.88;;;12.60;99.90;;;;;;5032806;28;20057;-63
2022/10/16 01:46:41;;;;;;;23.10;2.47;;;12.60;99.90;;;;;;5048267;28;20310;-64
2022/10/16 01:49:07;;;;;;;22.60;3.75;;;12.60;99.90;;;;;;5028213;28;20042;-63
2022/10/16 01:51:34;;;;;;;16.15;2.97;;;12.50;99.90;;;;;;5046487;28;20689;-65
2022/10/16 01:54:01;;;;;;;14.43;3.50;;;12.60;99.90;;;;;;5049422;28;20060;-64
2022/10/16 01:56:28;;;;;;;17.92;2.65;;;12.60;99.90;;;;;;5031733;28;20414;-64
2022/10/16 01:59:04;;;;;;;15.48;2.95;;;12.60;99.90;;;;;;5048261;28;20045;-64
2022/10/16 02:01:31;;;;;;;14.80;2.13;;;12.60;99.90;;;;;;5032248;28;20044;-64
2022/10/16 02:03:59;;;;;;;14.02;2.85;;;12.70;99.90;;;;;;5047705;28;20045;-64
2022/10/16 02:06:26;;;;;;;12.20;3.13;;;12.70;99.90;;;;;;5031715;28;20041;-64
2022/10/16 02:08:53;;;;;;;19.42;2.60;;;12.70;99.90;;;;;;5049003;28;20053;-63
2022/10/16 02:11:20;;;;;;;11.05;2.35;;;12.80;99.90;;;;;;5048072;28;20375;-64
2022/10/16 02:13:50;;;;;;;21.40;3.90;;;12.70;99.90;;;;;;5049022;28;20455;-64
2022/10/16 02:16:16;;;;;;;18.30;2.67;;;12.70;99.90;;;;;;5047941;28;20412;-63
2022/10/16 02:18:43;;;;;;;22.00;4.18;;;12.70;99.90;;;;;;5048558;28;20186;-64
2022/10/16 02:21:17;;;;;;;24.02;3.10;;;12.70;99.90;;;;;;5049609;28;20053;-64
2022/10/16 02:23:44;;;;;;;20.90;3.03;;;12.70;99.90;;;;;;5048980;28;20048;-63
2022/10/16 02:26:13;;;;;;;21.15;6.43;;;12.60;99.90;;;;;;5048932;28;20132;-63
2022/10/16 02:28:43;;;;;;;16.80;2.97;;;12.60;99.90;;;;;;5031211;28;20071;-64
2022/10/16 02:31:11;;;;;;;16.05;3.10;;;12.60;99.90;;;;;;5031480;28;20052;-64
2022/10/16 02:33:39;;;;;;;12.30;2.22;;;12.60;99.90;;;;;;5030810;28;20045;-64
2022/10/16 02:36:06;;;;;;;21.52;3.20;;;12.60;99.90;;;;;;5047342;28;20049;-63
2022/10/16 02:38:33;;;;;;;20.83;2.50;;;12.60;99.90;;;;;;5047304;28;20053;-64
2022/10/16 02:41:00;;;;;;;9.85;2.40;;;12.50;99.90;;;;;;5046723;28;20037;-63
2022/10/16 02:43:26;;;;;;;21.00;4.47;;;12.50;99.90;;;;;;5030878;28;20052;-64
2022/10/16 02:45:53;;;;;;;11.60;1.95;;;12.50;99.90;;;;;;5048394;28;20064;-64
2022/10/16 02:48:20;;;;;;;14.98;2.55;;;12.40;99.90;;;;;;5048429;28;20722;-64
2022/10/16 02:50:47;;;;;;;13.68;2.70;;;12.50;99.90;;;;;;5046784;28;20044;-64
2022/10/16 02:53:13;;;;;;;11.98;2.35;;;12.40;99.90;;;;;;5049007;28;20439;-64
2022/10/16 02:55:40;;;;;;;12.32;2.17;;;12.40;99.90;;;;;;5048098;28;20055;-64
2022/10/16 02:58:07;;;;;;;11.27;2.50;;;12.40;99.90;;;;;;5048846;28;20057;-64
2022/10/16 03:00:33;;;;;;;13.63;2.40;;;12.40;99.90;;;;;;5048833;28;20060;-64
2022/10/16 03:03:00;;;;;;;13.82;2.17;;;12.30;99.90;;;;;;5048508;28;20045;-63
2022/10/16 03:05:27;;;;;;;12.60;2.38;;;12.30;99.90;;;;;;5048369;28;20055;-64
2022/10/16 03:07:54;;;;;;;10.35;1.73;;;12.30;99.90;;;;;;5048643;28;20087;-64
2022/10/16 03:10:20;;;;;;;11.90;2.25;;;12.30;99.90;;;;;;5048359;28;20048;-63
2022/10/16 03:12:47;;;;;;;16.27;1.73;;;12.20;99.90;;;;;;5048760;28;20420;-64
2022/10/16 03:15:15;;;;;;;11.32;2.58;;;12.20;99.90;;;;;;5048278;28;20045;-64
2022/10/16 03:17:41;;;;;;;15.60;2.15;;;12.20;99.90;;;;;;5047080;28;20053;-64
2022/10/16 03:20:08;;;;;;;11.75;1.98;;;12.20;99.90;;;;;;5048492;28;20047;-64
2022/10/16 03:22:35;;;;;;;23.83;4.72;;;12.10;99.90;;;;;;5048433;28;20407;-64
2022/10/16 03:25:02;;;;;;;13.95;2.03;;;12.10;99.90;;;;;;5048306;28;20044;-64
2022/10/16 03:27:28;;;;;;;20.95;3.47;;;12.10;99.90;;;;;;5048077;28;20076;-63
2022/10/16 03:29:55;;;;;;;18.17;2.60;;;12.10;99.90;;;;;;5048208;28;20385;-64
2022/10/16 03:32:22;;;;;;;20.25;3.17;;;12.10;99.90;;;;;;5046873;28;20481;-64
2022/10/16 03:34:49;;;;;;;19.95;2.97;;;12.10;99.90;;;;;;5048634;28;20067;-64
2022/10/16 03:37:16;;;;;;;14.05;3.05;;;12.10;99.90;;;;;;5046856;28;20045;-64
2022/10/16 03:39:43;;;;;;;19.33;2.78;;;12.10;99.90;;;;;;5048395;28;20053;-64
2022/10/16 03:42:09;;;;;;;10.85;1.90;;;12.10;99.90;;;;;;5048047;28;20045;-63
2022/10/16 03:44:36;;;;;;;15.05;2.28;;;12.00;99.90;;;;;;5048076;28;20045;-64
2022/10/16 03:47:03;;;;;;;12.20;2.60;;;12.10;99.90;;;;;;5047973;28;20063;-64
2022/10/16 03:49:30;;;;;;;12.32;2.33;;;12.10;99.90;;;;;;5048189;28;20049;-63
2022/10/16 03:51:56;;;;;;;18.08;2.35;;;12.10;99.90;;;;;;5050267;28;20045;-63
2022/10/16 03:54:23;;;;;;;13.63;2.63;;;12.10;99.90;;;;;;5052291;28;20049;-63
2022/10/16 03:56:50;;;;;;;17.90;2.30;;;12.10;99.90;;;;;;5051875;28;20524;-63
2022/10/16 03:59:17;;;;;;;15.20;2.28;;;12.10;99.90;;;;;;5052024;28;20057;-63
2022/10/16 04:01:44;;;;;;;11.27;2.20;;;12.10;99.90;;;;;;5051982;28;20118;-63
2022/10/16 04:04:10;;;;;;;23.33;2.60;;;12.10;99.90;;;;;;5035144;28;20437;-63
2022/10/16 04:06:37;;;;;;;15.10;2.35;;;12.10;99.90;;;;;;5037922;28;20537;-64
2022/10/16 04:09:04;;;;;;;12.10;2.08;;;12.10;99.90;;;;;;5051682;28;20516;-64
2022/10/16 04:11:30;;;;;;;22.05;3.55;;;12.10;99.90;;;;;;5051700;28;20049;-64
2022/10/16 04:13:57;;;;;;;19.92;2.92;;;12.10;99.90;;;;;;5050195;28;20111;-63
2022/10/16 04:16:24;;;;;;;14.07;2.72;;;12.10;99.90;;;;;;5051555;28;20041;-62
2022/10/16 04:18:51;;;;;;;17.70;2.35;;;12.10;99.90;;;;;;5051079;28;20067;-62
2022/10/16 04:21:18;;;;;;;19.13;3.47;;;12.00;99.90;;;;;;5050354;28;20052;-63
2022/10/16 04:23:44;;;;;;;15.00;2.00;;;12.00;99.90;;;;;;5051347;28;20080;-64
2022/10/16 04:26:11;;;;;;;24.23;2.83;;;11.90;99.90;;;;;;5051535;28;20060;-64
2022/10/16 04:28:38;;;;;;;25.80;2.65;;;11.90;99.90;;;;;;5051083;28;20055;-63
2022/10/16 04:31:05;;;;;;;10.15;3.25;;;12.00;99.90;;;;;;5051530;28;20128;-63
2022/10/16 04:33:33;;;;;;;17.17;2.72;;;12.00;99.90;;;;;;5051025;28;20452;-62
2022/10/16 04:36:00;;;;;;;16.90;2.47;;;12.00;99.90;;;;;;5051668;28;20056;-63
2022/10/16 04:38:27;;;;;;;19.17;3.08;;;11.90;99.90;;;;;;5051120;28;20049;-63
2022/10/16 04:40:53;;;;;;;20.63;3.28;;;11.90;99.90;;;;;;5049997;28;20049;-63
2022/10/16 04:43:20;;;;;;;10.27;1.58;;;11.90;99.90;;;;;;5049768;28;20594;-64
2022/10/16 04:45:47;;;;;;;17.50;2.38;;;11.90;99.90;;;;;;5051307;28;20060;-63
2022/10/16 04:48:14;;;;;;;16.83;2.78;;;11.80;99.90;;;;;;5051006;28;20045;-63
2022/10/16 04:50:41;;;;;;;14.52;2.20;;;11.80;99.90;;;;;;5051120;28;20428;-65
2022/10/16 04:53:08;;;;;;;19.75;2.53;;;11.80;99.90;;;;;;5051309;28;20056;-63
2022/10/16 04:55:35;;;;;;;23.95;3.13;;;11.80;99.90;;;;;;5050726;28;20059;-63
2022/10/16 04:58:01;;;;;;;13.95;2.80;;;11.80;99.90;;;;;;5051061;28;20044;-64
2022/10/16 05:00:28;;;;;;;19.58;2.90;;;11.80;99.90;;;;;;5050862;28;20137;-64
2022/10/16 05:02:55;;;;;;;10.27;1.95;;;11.80;99.90;;;;;;5048596;28;20096;-63
2022/10/16 05:05:22;;;;;;;20.92;2.78;;;11.70;99.90;;;;;;5050631;28;20110;-63
2022/10/16 05:07:49;;;;;;;16.17;2.95;;;11.70;99.90;;;;;;5050811;28;20136;-63
2022/10/16 05:10:16;;;;;;;15.25;2.63;;;11.70;99.90;;;;;;5050446;28;20136;-63
2022/10/16 05:12:43;;;;;;;20.92;3.28;;;11.70;99.90;;;;;;5050870;28;20099;-64
2022/10/16 05:15:10;;;;;;;18.17;2.30;;;11.70;99.90;;;;;;5050728;28;20059;-63
2022/10/16 05:17:37;;;;;;;14.05;2.22;;;11.70;99.90;;;;;;5050766;28;20044;-63
2022/10/16 05:20:10;;;;;;;16.95;2.67;;;11.70;99.90;;;;;;5050391;28;20048;-64
2022/10/16 05:22:37;;;;;;;16.35;2.63;;;11.70;99.90;;;;;;5050405;28;20053;-63
2022/10/16 05:25:04;;;;;;;16.83;2.25;;;11.60;99.90;;;;;;5050344;28;20082;-63
2022/10/16 05:27:31;;;;;;;10.52;2.42;;;11.60;99.90;;;;;;5050388;28;20127;-63
2022/10/16 05:29:57;;;;;;;28.98;3.78;;;11.60;99.90;;;;;;5050413;28;20052;-63
2022/10/16 05:32:24;;;;;;;7.43;1.73;;;11.60;99.90;;;;;;5050602;28;20049;-64
2022/10/16 05:34:51;;;;;;;10.00;2.30;;;11.60;99.90;;;;;;5049872;28;20057;-64
2022/10/16 05:37:17;;;;;;;21.55;3.03;;;11.60;99.90;;;;;;5050458;28;20045;-66
2022/10/16 05:39:44;;;;;;;10.20;2.55;;;11.70;99.90;;;;;;5050019;28;20131;-64
2022/10/16 05:42:11;;;;;;;17.40;2.03;;;11.70;99.90;;;;;;5050527;28;20386;-63
2022/10/16 05:44:38;;;;;;;17.67;3.42;;;11.60;99.90;;;;;;5049896;28;20056;-64
2022/10/16 05:47:04;;;;;;;25.17;3.38;;;11.60;99.90;;;;;;5050022;28;20041;-64
2022/10/16 05:49:31;;;;;;;18.05;4.10;;;11.70;99.90;;;;;;5049551;28;20053;-64
2022/10/16 05:51:58;;;;;;;22.15;4.07;;;11.70;99.90;;;;;;5049730;28;20044;-64
2022/10/16 05:54:24;;;;;;;13.27;2.90;;;11.60;99.90;;;;;;5049916;28;20091;-63
2022/10/16 05:56:51;;;;;;;14.23;2.33;;;11.60;99.90;;;;;;5049717;28;20431;-64
2022/10/16 05:59:18;;;;;;;19.30;2.55;;;11.60;99.90;;;;;;5049929;28;20045;-64
2022/10/16 06:01:45;;;;;;;16.10;2.40;;;11.60;99.90;;;;;;5049396;28;20049;-63
2022/10/16 06:04:11;;;;;;;12.98;2.47;;;11.60;99.90;;;;;;5049555;28;20041;-62
2022/10/16 06:06:38;;;;;;;15.45;2.85;;;11.60;99.90;;;;;;5049364;28;20041;-66
2022/10/16 06:09:05;;;;;;;12.60;2.10;;;11.60;99.90;;;;;;5048293;28;20420;-63
2022/10/16 06:11:32;;;;;;;17.48;2.78;;;11.60;99.90;;;;;;5049087;28;20547;-61
2022/10/16 06:14:06;;;;;;;15.38;2.25;;;11.60;99.90;;;;;;5049421;28;20500;-64
2022/10/16 06:16:34;;;;;;;16.85;2.40;;;11.60;99.90;;;;;;5048984;28;20041;-63
2022/10/16 06:19:01;;;;;;;11.23;2.20;;;11.60;99.90;;;;;;5048763;28;20071;-63
2022/10/16 06:21:28;;;;;;;20.63;3.25;;;11.60;99.90;;;;;;5048954;28;20526;-63
2022/10/16 06:23:55;;;;;;;10.68;2.08;;;11.60;99.90;;;;;;5046306;28;20056;-63
2022/10/16 06:26:24;;;;;;;18.60;2.80;;;11.60;99.90;;;;;;4696108;28;10000599;-64
2022/10/16 06:28:51;;;;;;;24.80;2.90;;;11.60;99.90;;;;;;5044477;28;20535;-63
2022/10/16 06:31:18;;;;;;;10.40;2.50;;;11.60;99.90;;;;;;5045610;28;20059;-64
2022/10/16 06:33:47;;;;;;;9.98;2.45;;;11.50;99.90;;;;;;5044946;28;20084;-63
2022/10/16 06:36:15;;;;;;;15.63;2.90;;;11.60;99.90;;;;;;5044710;28;20160;-62
2022/10/16 06:38:42;;;;;;;16.13;2.40;;;11.60;99.90;;;;;;5027674;28;20132;-63
2022/10/16 06:41:14;;;;;;;16.70;2.50;;;11.60;99.90;;;;;;5045505;28;20076;-63
2022/10/16 06:43:41;;;;;;;13.30;3.67;;;11.50;99.90;;;;;;5045071;28;20049;-65
2022/10/16 06:46:09;;;;;;;15.55;3.65;;;11.60;99.90;;;;;;5045371;28;20055;-63
2022/10/16 06:48:36;;;;;;;17.45;2.45;;;11.60;99.90;;;;;;5044485;28;20525;-64
2022/10/16 06:51:04;;;;;;;26.23;3.25;;;11.60;99.90;;;;;;5045633;28;20059;-63
2022/10/16 06:53:38;;;;;;;20.77;4.45;;;11.50;99.90;;;;;;5043895;28;20503;-63
2022/10/16 06:56:24;;;;;;;12.90;2.17;;;11.60;99.90;;;;;;5045050;28;20071;-62
2022/10/16 06:58:52;;;;;;;16.67;2.85;;;11.50;99.90;;;;;;5046107;28;20387;-64
2022/10/16 07:01:20;;;;;;;13.95;3.30;;;11.60;99.90;;;;;;5043944;28;20110;-63
2022/10/16 07:03:47;;;;;;;9.32;2.38;;;11.50;99.90;;;;;;5042283;28;20048;-63
2022/10/16 07:06:16;;;;;;;8.95;2.08;;;11.60;99.90;;;;;;5043871;28;20045;-63
2022/10/16 07:08:44;;;;;;;10.20;2.47;;;11.60;99.90;;;;;;5043608;28;20045;-63
2022/10/16 07:11:12;;;;;;;17.42;1.83;;;11.60;99.90;;;;;;5042706;28;20048;-63
2022/10/16 07:13:40;;;;;;;21.45;3.00;;;11.60;99.90;;;;;;5047759;28;20048;-63
2022/10/16 07:16:11;;;;;;;12.90;2.30;;;11.50;99.90;;;;;;5047936;28;20103;-63
2022/10/16 07:18:40;;;;;;;16.00;3.50;;;11.50;99.90;;;;;;5047543;28;20084;-64
2022/10/16 07:21:07;;;;;;;14.55;2.55;;;11.50;99.90;;;;;;5047424;28;20200;-64
2022/10/16 07:23:34;;;;;;;12.43;2.75;;;11.50;99.90;;;;;;5046167;28;20048;-64
2022/10/16 07:26:01;;;;;;;9.23;2.30;;;11.60;99.90;;;;;;5046072;28;20045;-62
2022/10/16 07:28:28;;;;;;;19.77;2.88;;;11.60;99.90;;;;;;5045797;28;20052;-62
2022/10/16 07:30:55;;;;;;;17.25;2.83;;;11.60;99.90;;;;;;5046376;28;20068;-63
2022/10/16 07:33:22;;;;;;;22.05;3.47;;;11.60;99.90;;;;;;5044651;28;20037;-64
2022/10/16 07:35:52;;;;;;;14.63;1.98;;;11.70;99.90;;;;;;5046601;28;20090;-63
2022/10/16 07:38:19;;;;;;;23.73;3.83;;;11.70;99.90;;;;;;5047702;28;20051;-63
2022/10/16 07:40:46;;;;;;;16.17;2.53;;;11.70;99.90;;;;;;5046913;28;20048;-63
2022/10/16 07:43:13;;;;;;;12.57;3.28;;;11.70;99.90;;;;;;5048092;28;20056;-64
2022/10/16 07:45:48;;;;;;;18.73;2.92;;;11.70;99.90;;;;;;5047816;28;20067;-64
2022/10/16 07:48:15;;;;;;;16.10;2.35;;;11.80;99.90;;;;;;5048033;28;20053;-63
2022/10/16 07:50:43;;;;;;;19.10;2.88;;;11.80;99.90;;;;;;5047490;28;20416;-63
2022/10/16 07:53:13;;;;;;;12.55;2.83;;;11.80;99.90;;;;;;5048024;28;20041;-63
2022/10/16 07:55:40;;;;;;;13.02;2.60;;;11.90;99.90;;;;;;5047794;28;20041;-66
2022/10/16 07:58:07;;;;;;;19.25;3.22;;;11.90;99.90;;;;;;5048055;28;20053;-64
2022/10/16 08:00:34;;;;;;;12.02;2.72;;;11.90;99.90;;;;;;5046299;28;20047;-63
2022/10/16 08:03:00;;;;;;;19.65;2.70;;;12.00;99.90;;;;;;5047468;28;20057;-65
2022/10/16 08:05:28;;;;;;;18.42;2.60;;;12.00;99.90;;;;;;4695612;28;10000437;-63
2022/10/16 08:07:55;;;;;;;12.25;2.22;;;12.10;99.90;;;;;;5042210;28;20051;-64
2022/10/16 08:10:24;;;;;;;13.50;3.28;;;12.10;99.90;;;;;;5043127;28;20051;-62
2022/10/16 08:12:51;;;;;;;21.00;2.92;;;12.20;99.90;;;;;;5043624;28;20053;-63
2022/10/16 08:15:18;;;;;;;13.77;2.80;;;12.20;99.90;;;;;;5044139;28;20517;-62
2022/10/16 08:17:55;;;;;;;17.33;2.45;;;12.30;99.90;;;;;;5044001;28;20111;-62
2022/10/16 08:20:22;;;;;;;10.60;2.95;;;12.30;99.90;;;;;;5043844;28;20044;-63
2022/10/16 08:22:49;;;;;;;18.08;3.13;;;12.40;99.90;;;;;;5044455;28;20051;-64
2022/10/16 08:25:16;;;;;;;15.68;4.47;;;12.50;99.90;;;;;;5043879;28;20056;-64
2022/10/16 08:27:44;;;;;;;13.25;3.40;;;12.50;99.90;;;;;;5044334;28;20059;-63
2022/10/16 08:30:12;;;;;;;17.10;2.78;;;12.60;99.90;;;;;;5044012;28;20053;-62
2022/10/16 08:32:41;;;;;;;13.38;2.67;;;12.60;99.90;;;;;;5042993;28;20426;-65
2022/10/16 08:35:09;;;;;;;23.75;2.78;;;12.60;99.90;;;;;;5043647;28;20053;-63
2022/10/16 08:37:35;;;;;;;18.30;3.55;;;12.70;99.90;;;;;;5043752;28;20047;-62
2022/10/16 08:40:04;;;;;;;26.35;3.65;;;12.70;99.90;;;;;;5047627;28;20053;-63
2022/10/16 08:43:06;;;;;;;25.17;3.10;;;12.70;99.90;;;;;;5047724;28;20052;-63
2022/10/16 08:45:51;;;;;;;8.95;2.33;;;12.90;99.90;;;;;;5046478;28;20065;-64
2022/10/16 08:48:23;;;;;;;12.50;2.35;;;13.10;99.90;;;;;;5036139;28;20087;-63
2022/10/16 08:50:51;;;;;;;19.17;2.90;;;13.40;99.90;;;;;;5048401;28;20059;-63
2022/10/16 08:53:30;;;;;;;14.93;3.10;;;13.80;99.90;;;;;;5057160;28;20415;-64
2022/10/16 08:55:58;;;;;;;21.58;3.90;;;14.00;99.90;;;;;;4683345;28;10000489;-64
2022/10/16 08:58:28;;;;;;;17.02;3.03;;;14.30;99.90;;;;;;5045945;28;20424;-65
2022/10/16 09:00:57;;;;;;;13.85;2.75;;;14.50;99.90;;;;;;5046890;28;20261;-64
2022/10/16 09:03:40;;;;;;;12.30;2.78;;;14.60;99.90;;;;;;5043533;28;20095;-65
2022/10/16 09:06:34;;;;;;;16.55;2.35;;;14.70;99.90;;;;;;5031080;28;20064;-64
2022/10/16 09:09:10;;;;;;;13.77;3.13;;;14.70;99.90;;;;;;5037275;28;20535;-64
2022/10/16 09:12:00;;;;;;;17.13;2.83;;;14.50;99.90;;;;;;5047605;28;20053;-62
2022/10/16 09:14:45;;;;;;;16.40;2.30;;;14.40;99.90;;;;;;5040421;28;20131;-63
2022/10/16 09:17:34;;;;;;;13.85;2.00;;;14.40;99.90;;;;;;5049621;28;20072;-63
2022/10/16 09:20:16;;;;;;;11.63;2.55;;;14.30;99.90;;;;;;5049902;28;20053;-62
2022/10/16 09:22:43;;;;;;;17.05;3.20;;;14.20;99.90;;;;;;5049999;28;20045;-63
2022/10/16 09:25:17;;;;;;;13.75;2.70;;;14.30;99.90;;;;;;5048811;28;20049;-63
2022/10/16 09:27:45;;;;;;;14.13;2.60;;;14.20;99.90;;;;;;5049638;28;20041;-63
2022/10/16 09:30:18;;;;;;;18.75;3.70;;;14.30;99.90;;;;;;5049682;28;20496;-62
2022/10/16 09:32:47;;;;;;;12.68;2.22;;;14.20;99.90;;;;;;5049619;28;20479;-63
2022/10/16 09:35:21;;;;;;;14.40;1.85;;;14.20;99.90;;;;;;5032207;28;20071;-63
2022/10/16 09:37:50;;;;;;;23.05;3.17;;;14.20;99.90;;;;;;5048269;28;20041;-64
2022/10/16 09:40:27;;;;;;;20.55;4.30;;;14.20;99.90;;;;;;5048885;28;20168;-65
2022/10/16 09:43:15;;;;;;;15.75;3.92;;;14.30;99.90;;;;;;5048291;28;20053;-64
2022/10/16 09:45:42;;;;;;;13.02;3.05;;;14.30;99.90;;;;;;5043571;28;20174;-64
2022/10/16 09:48:12;;;;;;;16.60;4.18;;;14.30;99.90;;;;;;5044015;28;20051;-64
2022/10/16 09:50:39;;;;;;;15.05;2.90;;;14.40;99.90;;;;;;5044700;28;20648;-64
2022/10/16 09:53:11;;;;;;;17.60;3.13;;;14.40;99.90;;;;;;5044096;28;20048;-64
2022/10/16 09:55:51;;;;;;;15.20;2.50;;;14.50;99.90;;;;;;5043902;28;20400;-64
2022/10/16 09:58:18;;;;;;;17.70;3.20;;;14.50;99.90;;;;;;5044652;28;20045;-63
2022/10/16 10:00:52;;;;;;;13.52;3.17;;;14.50;99.90;;;;;;5045249;28;20400;-62
2022/10/16 10:03:34;;;;;;;16.48;2.15;;;14.50;99.90;;;;;;5045141;28;20045;-63
2022/10/16 10:06:37;;;;;;;21.15;3.05;;;14.60;99.90;;;;;;5044865;28;20115;-63
2022/10/16 10:09:05;;;;;;;15.77;2.30;;;14.60;99.90;;;;;;5043275;28;20060;-63
2022/10/16 10:11:41;;;;;;;6.78;2.30;;;14.70;99.90;;;;;;5043168;28;20056;-64
2022/10/16 10:14:24;;;;;;;12.68;3.50;;;14.80;99.90;;;;;;5043048;28;20049;-63
2022/10/16 10:16:52;;;;;;;12.77;1.90;;;14.90;99.90;;;;;;5043992;28;20120;-60
2022/10/16 10:19:21;;;;;;;7.85;2.65;;;15.00;99.90;;;;;;5044688;28;20045;-62
2022/10/16 10:21:49;;;;;;;13.15;2.17;;;15.10;99.90;;;;;;5043176;28;20531;-63
2022/10/16 10:24:16;;;;;;;12.00;2.17;;;15.20;99.90;;;;;;5043518;28;20048;-63
2022/10/16 10:27:11;;;;;;;14.07;2.40;;;15.30;99.90;;;;;;5042359;28;20044;-63
2022/10/16 10:33:08;;;;;;;10.43;2.50;;;15.50;99.90;;;;;;5047791;28;19920;-63
2022/10/16 10:36:13;;;;;;;9.25;1.85;;;15.60;99.90;;;;;;5059480;28;20027;-63
2022/10/16 10:38:49;;;;;;;10.00;2.45;;;15.60;99.90;;;;;;5061904;28;20068;-60
2022/10/16 10:41:34;;;;;;;13.10;2.47;;;15.70;99.90;;;;;;5059840;28;20044;-62
2022/10/16 10:44:03;;;;;;;12.82;2.28;;;15.70;99.90;;;;;;5059929;28;20036;-64
2022/10/16 10:46:55;;;;;;;12.75;2.80;;;15.90;99.90;;;;;;5056601;28;20052;-63
2022/10/16 10:49:28;;;;;;;15.48;2.95;;;15.90;99.90;;;;;;5053478;28;20071;-63
2022/10/16 10:52:13;;;;;;;14.27;2.03;;;16.00;99.90;;;;;;5048718;28;20048;-63
2022/10/16 10:54:40;;;;;;;12.25;2.15;;;16.00;99.90;;;;;;5048209;28;20047;-63
2022/10/16 10:57:50;;;;;;;14.50;2.60;;;16.10;99.90;;;;;;5051576;28;20515;-62
2022/10/16 11:00:19;;;;;;;7.35;1.92;;;16.10;99.90;;;;;;5038592;28;20055;-63
2022/10/16 11:02:58;;;;;;;12.30;2.15;;;16.20;99.90;;;;;;5060176;28;20041;-62
2022/10/16 11:05:33;;;;;;;7.88;2.38;;;16.20;99.90;;;;;;5064651;28;20045;-62
2022/10/16 11:08:21;;;;;;;16.52;2.63;;;16.30;99.90;;;;;;5067411;28;20056;-63
2022/10/16 11:10:58;;;;;;;6.60;1.40;;;16.30;99.90;;;;;;5054741;28;20064;-62
2022/10/16 11:13:46;;;;;;;13.05;2.45;;;16.40;99.90;;;;;;5052514;28;20075;-63
2022/10/16 11:16:30;;;;;;;12.32;2.08;;;16.40;99.90;;;;;;5063666;28;20055;-63
2022/10/16 11:18:59;;;;;;;;;;;16.50;99.90;;;;;;5056320;28;20052;-64
2022/10/16 11:21:26;;;;;;;12.50;1.73;;;16.50;99.90;;;;;;5051133;28;19921;-62
2022/10/16 11:24:00;;;;;;;11.90;3.10;;;16.50;99.90;;;;;;5049916;28;20463;-62
2022/10/16 11:26:28;;;;;;;6.03;1.55;;;16.60;99.90;;;;;;5049585;28;20045;-63
2022/10/16 11:28:56;;;;;;;12.00;2.97;;;16.70;99.90;;;;;;5048808;28;20052;-64
2022/10/16 11:31:45;;;;;;;10.70;2.63;;;16.70;99.90;;;;;;5049331;28;20057;-63
2022/10/16 11:34:34;;;;;;;14.55;3.17;;;16.80;99.90;;;;;;5053059;28;20483;-63
2022/10/16 11:37:16;;;;;;;14.98;2.10;;;16.80;99.90;;;;;;5045502;28;20071;-62
2022/10/16 11:39:43;;;;;;;10.05;2.78;;;16.70;99.90;;;;;;5047235;28;20056;-62
2022/10/16 11:42:22;;;;;;;17.67;2.50;;;16.70;99.90;;;;;;5050429;28;20098;-62
2022/10/16 11:45:11;;;;;;;16.67;2.30;;;16.80;99.90;;;;;;5029513;28;20076;-62
2022/10/16 11:47:41;;;;;;;12.57;2.42;;;16.80;99.90;;;;;;5050367;28;20770;-62
2022/10/16 11:50:42;;;;;;;12.18;1.98;;;16.80;99.90;;;;;;5047357;28;20041;-60
2022/10/16 11:53:35;;;;;;;13.37;3.07;;;16.90;99.90;;;;;;5046566;28;20044;-64
2022/10/16 11:56:01;;;;;;;23.30;2.38;;;17.00;99.90;;;;;;5045921;28;20579;-63
2022/10/16 11:58:51;;;;;;;14.88;2.55;;;17.00;99.90;;;;;;5054425;28;20040;-62
2022/10/16 12:01:27;;;;;;;15.13;2.20;;;17.10;99.90;;;;;;5059836;28;20045;-63
2022/10/16 12:04:02;;;;;;;18.48;2.72;;;17.20;99.90;;;;;;5065026;28;20045;-63
2022/10/16 12:06:41;;;;;;;14.75;2.95;;;17.30;99.90;;;;;;5065038;28;20053;-62
2022/10/16 12:09:29;;;;;;;13.48;2.35;;;17.30;99.90;;;;;;5065861;28;20045;-62
2022/10/16 12:11:58;;;;;;;21.70;3.35;;;17.30;99.90;;;;;;5067773;28;20072;-61
2022/10/16 12:14:35;;;;;;;14.50;2.78;;;17.30;99.90;;;;;;5053053;28;20044;-61
2022/10/16 12:17:27;;;;;;;18.83;4.07;;;17.30;99.90;;;;;;5063567;28;20048;-61
2022/10/16 12:20:19;;;;;;;16.45;2.88;;;17.30;99.90;;;;;;5053985;28;20067;-62
2022/10/16 12:22:57;;;;;;;11.23;2.20;;;17.40;99.90;;;;;;5070036;28;20699;-61
2022/10/16 12:25:29;;;;;;;13.02;2.58;;;17.30;99.90;;;;;;5068637;28;20147;-62
2022/10/16 12:28:16;;;;;;;13.18;2.63;;;17.30;99.90;;;;;;5061313;28;20056;-63
2022/10/16 12:30:43;;;;;;;20.20;3.20;;;17.30;99.90;;;;;;5058763;28;20569;-61
2022/10/16 12:33:25;;;;;;;24.17;4.47;;;17.30;99.90;;;;;;5058731;28;20055;-62
2022/10/16 12:35:51;;;;;;;22.00;2.90;;;17.20;99.90;;;;;;5027331;28;20064;-62
2022/10/16 12:38:20;;;;;;;16.35;3.65;;;17.10;99.90;;;;;;5049919;28;20053;-63
2022/10/16 12:41:02;;;;;;;19.90;4.45;;;17.10;99.90;;;;;;5050384;28;20048;-62
2022/10/16 12:43:31;;;;;;;18.45;2.50;;;17.00;99.90;;;;;;5052199;28;20394;-62
2022/10/16 12:46:03;;;;;;;29.23;3.47;;;17.00;99.90;;;;;;5051108;28;20363;-63
2022/10/16 12:48:30;;;;;;;13.40;3.25;;;17.00;99.90;;;;;;5048669;28;20041;-63
2022/10/16 12:51:29;;;;;;;16.17;2.88;;;17.00;99.90;;;;;;5046944;28;20045;-62
2022/10/16 12:54:15;;;;;;;12.07;2.80;;;17.00;99.90;;;;;;5047424;28;20064;-62
2022/10/16 12:57:07;;;;;;;16.65;3.17;;;16.90;99.90;;;;;;5045630;28;20049;-61
2022/10/16 12:59:51;;;;;;;24.23;4.28;;;16.90;99.90;;;;;;5046717;28;20059;-61
2022/10/16 13:02:27;;;;;;;16.73;4.50;;;16.90;99.90;;;;;;5025093;28;20040;-62
2022/10/16 13:05:27;;;;;;;12.50;3.65;;;16.80;99.90;;;;;;5047925;28;20502;-62